sensor_id;sensor_type;location;lat;lon;timestamp;pressure;altitude;pressure_sealevel;temperature;humidity
57644;BME280;43474;46.510;6.686;2022-07-18T00:00:09;97016.00;;;18.98;74.37
57644;BME280;43474;46.510;6.686;2022-07-18T00:02:55;97000.25;;;18.81;74.41
57644;BME280;43474;46.510;6.686;2022-07-18T00:05:21;97014.44;;;18.87;72.43
57644;BME280;43474;46.510;6.686;2022-07-18T00:07:46;97007.94;;;18.98;70.34
57644;BME280;43474;46.510;6.686;2022-07-18T00:10:12;97016.25;;;19.02;73.14
57644;BME280;43474;46.510;6.686;2022-07-18T00:12:38;97007.97;;;18.93;73.87
57644;BME280;43474;46.510;6.686;2022-07-18T00:15:04;97008.00;;;18.83;75.40
57644;BME280;43474;46.510;6.686;2022-07-18T00:17:30;97008.25;;;18.92;72.84
57644;BME280;43474;46.510;6.686;2022-07-18T00:19:55;97016.81;;;18.99;70.81
57644;BME280;43474;46.510;6.686;2022-07-18T00:22:21;97020.06;;;18.96;73.16
57644;BME280;43474;46.510;6.686;2022-07-18T00:24:46;97003.31;;;19.09;71.09
57644;BME280;43474;46.510;6.686;2022-07-18T00:27:12;97029.66;;;19.12;73.11
57644;BME280;43474;46.510;6.686;2022-07-18T00:29:37;97013.72;;;19.26;69.54
57644;BME280;43474;46.510;6.686;2022-07-18T00:32:05;97002.72;;;19.22;68.78
57644;BME280;43474;46.510;6.686;2022-07-18T00:34:31;97014.16;;;19.43;69.95
57644;BME280;43474;46.510;6.686;2022-07-18T00:36:58;97015.03;;;19.28;72.79
57644;BME280;43474;46.510;6.686;2022-07-18T00:39:24;97027.75;;;19.18;71.85
57644;BME280;43474;46.510;6.686;2022-07-18T00:41:50;97020.25;;;19.15;72.16
57644;BME280;43474;46.510;6.686;2022-07-18T00:44:22;97012.53;;;18.98;71.96
57644;BME280;43474;46.510;6.686;2022-07-18T00:46:56;97023.28;;;18.93;72.52
57644;BME280;43474;46.510;6.686;2022-07-18T00:49:22;97011.78;;;18.82;73.26
57644;BME280;43474;46.510;6.686;2022-07-18T00:51:48;97011.81;;;18.72;75.03
57644;BME280;43474;46.510;6.686;2022-07-18T00:54:13;97023.09;;;18.64;75.50
57644;BME280;43474;46.510;6.686;2022-07-18T00:56:39;97029.25;;;18.59;76.11
57644;BME280;43474;46.510;6.686;2022-07-18T00:59:05;97016.66;;;18.59;75.07
57644;BME280;43474;46.510;6.686;2022-07-18T01:01:31;97014.75;;;18.80;71.20
57644;BME280;43474;46.510;6.686;2022-07-18T01:04:10;97026.41;;;19.20;68.58
57644;BME280;43474;46.510;6.686;2022-07-18T01:06:37;97022.19;;;19.48;67.59
57644;BME280;43474;46.510;6.686;2022-07-18T01:09:03;97017.13;;;19.42;69.10
57644;BME280;43474;46.510;6.686;2022-07-18T01:11:28;97011.22;;;19.45;68.36
57644;BME280;43474;46.510;6.686;2022-07-18T01:13:54;97022.03;;;19.34;68.96
57644;BME280;43474;46.510;6.686;2022-07-18T01:16:21;97026.63;;;19.24;71.54
57644;BME280;43474;46.510;6.686;2022-07-18T01:18:48;97023.47;;;19.11;73.06
57644;BME280;43474;46.510;6.686;2022-07-18T01:21:14;97029.91;;;19.16;71.98
57644;BME280;43474;46.510;6.686;2022-07-18T01:23:40;97029.81;;;19.36;67.80
57644;BME280;43474;46.510;6.686;2022-07-18T01:26:06;97016.66;;;19.34;67.04
57644;BME280;43474;46.510;6.686;2022-07-18T01:28:32;97016.22;;;19.56;65.79
57644;BME280;43474;46.510;6.686;2022-07-18T01:30:58;97022.72;;;19.50;67.56
57644;BME280;43474;46.510;6.686;2022-07-18T01:33:23;97018.50;;;19.34;69.29
57644;BME280;43474;46.510;6.686;2022-07-18T01:35:49;97030.44;;;19.18;71.07
57644;BME280;43474;46.510;6.686;2022-07-18T01:38:14;97038.81;;;19.06;71.66
57644;BME280;43474;46.510;6.686;2022-07-18T01:40:40;97031.09;;;18.84;73.46
57644;BME280;43474;46.510;6.686;2022-07-18T01:43:06;97037.31;;;18.64;76.80
57644;BME280;43474;46.510;6.686;2022-07-18T01:45:32;97037.09;;;18.45;78.59
57644;BME280;43474;46.510;6.686;2022-07-18T01:47:58;97025.31;;;18.36;78.72
57644;BME280;43474;46.510;6.686;2022-07-18T01:50:23;97025.03;;;18.32;74.81
57644;BME280;43474;46.510;6.686;2022-07-18T01:52:49;97029.06;;;18.45;74.31
57644;BME280;43474;46.510;6.686;2022-07-18T01:55:14;97032.53;;;18.41;74.44
57644;BME280;43474;46.510;6.686;2022-07-18T01:57:40;97035.19;;;18.56;73.11
57644;BME280;43474;46.510;6.686;2022-07-18T02:00:08;97031.09;;;18.89;70.71
57644;BME280;43474;46.510;6.686;2022-07-18T02:02:34;97028.06;;;19.06;69.38
57644;BME280;43474;46.510;6.686;2022-07-18T02:05:00;97039.56;;;19.17;69.56
57644;BME280;43474;46.510;6.686;2022-07-18T02:07:31;97046.03;;;19.16;69.25
57644;BME280;43474;46.510;6.686;2022-07-18T02:09:57;97027.00;;;19.02;72.28
57644;BME280;43474;46.510;6.686;2022-07-18T02:12:23;97036.13;;;19.06;71.23
57644;BME280;43474;46.510;6.686;2022-07-18T02:14:49;97038.56;;;18.97;71.67
57644;BME280;43474;46.510;6.686;2022-07-18T02:17:15;97034.75;;;19.08;69.63
57644;BME280;43474;46.510;6.686;2022-07-18T02:19:40;97034.28;;;19.01;71.80
57644;BME280;43474;46.510;6.686;2022-07-18T02:22:06;97033.22;;;18.92;73.62
57644;BME280;43474;46.510;6.686;2022-07-18T02:24:31;97041.81;;;18.94;70.58
57644;BME280;43474;46.510;6.686;2022-07-18T02:26:58;97037.78;;;18.97;71.42
57644;BME280;43474;46.510;6.686;2022-07-18T02:29:23;97040.78;;;18.90;72.53
57644;BME280;43474;46.510;6.686;2022-07-18T02:31:49;97046.41;;;18.89;71.39
57644;BME280;43474;46.510;6.686;2022-07-18T02:34:14;97038.91;;;18.80;71.52
57644;BME280;43474;46.510;6.686;2022-07-18T02:36:41;97044.53;;;18.79;72.85
57644;BME280;43474;46.510;6.686;2022-07-18T02:39:08;97042.31;;;19.01;70.76
57644;BME280;43474;46.510;6.686;2022-07-18T02:41:34;97040.66;;;19.16;69.79
57644;BME280;43474;46.510;6.686;2022-07-18T02:44:00;97039.84;;;19.20;71.62
57644;BME280;43474;46.510;6.686;2022-07-18T02:46:26;97037.59;;;19.32;69.04
57644;BME280;43474;46.510;6.686;2022-07-18T02:48:51;97040.28;;;19.32;68.89
57644;BME280;43474;46.510;6.686;2022-07-18T02:51:17;97040.03;;;19.29;70.06
57644;BME280;43474;46.510;6.686;2022-07-18T02:53:42;97039.28;;;19.18;71.87
57644;BME280;43474;46.510;6.686;2022-07-18T02:56:08;97042.81;;;19.14;72.22
57644;BME280;43474;46.510;6.686;2022-07-18T02:58:33;97030.81;;;18.96;74.27
57644;BME280;43474;46.510;6.686;2022-07-18T03:00:59;97043.44;;;18.90;75.47
57644;BME280;43474;46.510;6.686;2022-07-18T03:03:24;97041.81;;;18.89;73.91
57644;BME280;43474;46.510;6.686;2022-07-18T03:05:51;97037.78;;;18.92;73.31
57644;BME280;43474;46.510;6.686;2022-07-18T03:08:16;97046.91;;;18.96;73.61
57644;BME280;43474;46.510;6.686;2022-07-18T03:10:42;97032.75;;;18.80;76.46
57644;BME280;43474;46.510;6.686;2022-07-18T03:13:08;97050.94;;;18.93;74.80
57644;BME280;43474;46.510;6.686;2022-07-18T03:15:34;97045.84;;;18.92;75.12
57644;BME280;43474;46.510;6.686;2022-07-18T03:17:59;97048.28;;;18.83;75.91
57644;BME280;43474;46.510;6.686;2022-07-18T03:20:24;97032.22;;;18.73;76.10
57644;BME280;43474;46.510;6.686;2022-07-18T03:22:50;97049.66;;;18.85;74.64
57644;BME280;43474;46.510;6.686;2022-07-18T03:25:15;97052.88;;;18.77;77.73
57644;BME280;43474;46.510;6.686;2022-07-18T03:27:41;97041.03;;;18.83;73.98
57644;BME280;43474;46.510;6.686;2022-07-18T03:30:07;97053.66;;;18.88;74.64
57644;BME280;43474;46.510;6.686;2022-07-18T03:32:32;97046.69;;;18.87;75.01
57644;BME280;43474;46.510;6.686;2022-07-18T03:34:58;97050.13;;;18.98;73.58
57644;BME280;43474;46.510;6.686;2022-07-18T03:37:23;97042.94;;;18.83;75.47
57644;BME280;43474;46.510;6.686;2022-07-18T03:39:49;97047.16;;;18.99;74.15
57644;BME280;43474;46.510;6.686;2022-07-18T03:42:14;97038.09;;;18.90;74.00
57644;BME280;43474;46.510;6.686;2022-07-18T03:44:40;97035.41;;;18.85;74.52
57644;BME280;43474;46.510;6.686;2022-07-18T03:47:05;97034.31;;;18.91;76.47
57644;BME280;43474;46.510;6.686;2022-07-18T03:49:31;97041.31;;;18.87;76.21
57644;BME280;43474;46.510;6.686;2022-07-18T03:51:56;97033.28;;;18.67;79.58
57644;BME280;43474;46.510;6.686;2022-07-18T03:54:23;97044.84;;;18.57;77.98
57644;BME280;43474;46.510;6.686;2022-07-18T03:56:49;97053.19;;;18.60;78.47
57644;BME280;43474;46.510;6.686;2022-07-18T03:59:15;97032.78;;;18.49;80.26
57644;BME280;43474;46.510;6.686;2022-07-18T04:01:40;97047.28;;;18.43;79.70
57644;BME280;43474;46.510;6.686;2022-07-18T04:04:06;97052.38;;;18.34;81.30
57644;BME280;43474;46.510;6.686;2022-07-18T04:06:31;97035.50;;;18.29;82.28
57644;BME280;43474;46.510;6.686;2022-07-18T04:08:57;97054.03;;;18.25;83.01
57644;BME280;43474;46.510;6.686;2022-07-18T04:11:22;97044.66;;;18.13;84.32
57644;BME280;43474;46.510;6.686;2022-07-18T04:13:53;97050.00;;;18.18;84.37
57644;BME280;43474;46.510;6.686;2022-07-18T04:16:19;97052.97;;;18.01;84.74
57644;BME280;43474;46.510;6.686;2022-07-18T04:18:45;97055.66;;;18.11;86.22
57644;BME280;43474;46.510;6.686;2022-07-18T04:21:11;97056.97;;;18.19;85.57
57644;BME280;43474;46.510;6.686;2022-07-18T04:23:38;97065.31;;;18.17;86.26
57644;BME280;43474;46.510;6.686;2022-07-18T04:26:03;97059.13;;;18.17;86.25
57644;BME280;43474;46.510;6.686;2022-07-18T04:28:30;97064.50;;;18.22;88.22
57644;BME280;43474;46.510;6.686;2022-07-18T04:30:55;97074.94;;;18.18;89.49
57644;BME280;43474;46.510;6.686;2022-07-18T04:33:21;97054.84;;;18.00;90.48
57644;BME280;43474;46.510;6.686;2022-07-18T04:35:48;97077.13;;;18.06;90.48
57644;BME280;43474;46.510;6.686;2022-07-18T04:38:13;97069.59;;;18.03;90.86
57644;BME280;43474;46.510;6.686;2022-07-18T04:40:39;97072.78;;;17.95;92.18
57644;BME280;43474;46.510;6.686;2022-07-18T04:43:05;97074.16;;;18.13;90.33
57644;BME280;43474;46.510;6.686;2022-07-18T04:45:31;97069.88;;;18.06;91.54
57644;BME280;43474;46.510;6.686;2022-07-18T04:47:56;97083.28;;;18.06;93.21
57644;BME280;43474;46.510;6.686;2022-07-18T04:50:23;97085.41;;;18.09;89.78
57644;BME280;43474;46.510;6.686;2022-07-18T04:52:50;97083.81;;;18.14;91.04
57644;BME280;43474;46.510;6.686;2022-07-18T04:55:17;97075.75;;;18.08;91.79
57644;BME280;43474;46.510;6.686;2022-07-18T04:57:44;97084.09;;;18.02;92.49
57644;BME280;43474;46.510;6.686;2022-07-18T05:00:14;97088.09;;;18.04;92.28
57644;BME280;43474;46.510;6.686;2022-07-18T05:02:45;97073.63;;;18.00;92.63
57644;BME280;43474;46.510;6.686;2022-07-18T05:05:12;97089.44;;;17.97;94.48
57644;BME280;43474;46.510;6.686;2022-07-18T05:07:39;97074.16;;;17.97;95.07
57644;BME280;43474;46.510;6.686;2022-07-18T05:10:06;97088.38;;;18.08;92.70
57644;BME280;43474;46.510;6.686;2022-07-18T05:12:34;97079.78;;;18.01;94.08
57644;BME280;43474;46.510;6.686;2022-07-18T05:15:00;97074.16;;;18.02;97.94
57644;BME280;43474;46.510;6.686;2022-07-18T05:17:25;97088.63;;;18.27;92.25
57644;BME280;43474;46.510;6.686;2022-07-18T05:19:50;97077.09;;;18.26;89.30
57644;BME280;43474;46.510;6.686;2022-07-18T05:22:16;97083.25;;;18.47;87.04
57644;BME280;43474;46.510;6.686;2022-07-18T05:24:42;97073.31;;;18.53;88.12
57644;BME280;43474;46.510;6.686;2022-07-18T05:27:07;97081.31;;;18.83;85.26
57644;BME280;43474;46.510;6.686;2022-07-18T05:29:33;97090.16;;;18.94;85.83
57644;BME280;43474;46.510;6.686;2022-07-18T05:31:59;97074.00;;;19.09;85.21
57644;BME280;43474;46.510;6.686;2022-07-18T05:34:24;97072.56;;;19.27;85.68
57644;BME280;43474;46.510;6.686;2022-07-18T05:36:50;97081.63;;;19.42;80.02
57644;BME280;43474;46.510;6.686;2022-07-18T05:39:15;97082.38;;;19.52;81.12
57644;BME280;43474;46.510;6.686;2022-07-18T05:41:41;97079.38;;;19.64;79.48
57644;BME280;43474;46.510;6.686;2022-07-18T05:44:06;97085.25;;;19.76;77.68
57644;BME280;43474;46.510;6.686;2022-07-18T05:46:32;97084.91;;;19.83;78.56
57644;BME280;43474;46.510;6.686;2022-07-18T05:48:57;97077.91;;;19.87;77.63
57644;BME280;43474;46.510;6.686;2022-07-18T05:51:23;97078.34;;;20.04;75.59
57644;BME280;43474;46.510;6.686;2022-07-18T05:53:49;97076.78;;;20.27;75.31
57644;BME280;43474;46.510;6.686;2022-07-18T05:56:15;97071.78;;;20.45;74.78
57644;BME280;43474;46.510;6.686;2022-07-18T05:58:40;97070.34;;;20.57;74.03
57644;BME280;43474;46.510;6.686;2022-07-18T06:01:06;97063.53;;;20.65;74.77
57644;BME280;43474;46.510;6.686;2022-07-18T06:03:32;97068.53;;;20.77;74.24
57644;BME280;43474;46.510;6.686;2022-07-18T06:05:57;97065.59;;;20.97;76.87
57644;BME280;43474;46.510;6.686;2022-07-18T06:08:23;97074.38;;;21.32;76.71
57644;BME280;43474;46.510;6.686;2022-07-18T06:10:48;97074.50;;;21.83;74.22
57644;BME280;43474;46.510;6.686;2022-07-18T06:13:14;97073.97;;;22.65;67.78
57644;BME280;43474;46.510;6.686;2022-07-18T06:15:39;97079.00;;;23.55;65.47
57644;BME280;43474;46.510;6.686;2022-07-18T06:18:05;97057.00;;;24.29;62.89
57644;BME280;43474;46.510;6.686;2022-07-18T06:20:30;97065.50;;;24.98;60.25
57644;BME280;43474;46.510;6.686;2022-07-18T06:22:56;97061.97;;;25.46;57.55
57644;BME280;43474;46.510;6.686;2022-07-18T06:25:21;97050.97;;;26.29;54.88
57644;BME280;43474;46.510;6.686;2022-07-18T06:27:47;97060.34;;;27.64;51.62
57644;BME280;43474;46.510;6.686;2022-07-18T06:30:13;97068.81;;;28.33;47.03
57644;BME280;43474;46.510;6.686;2022-07-18T06:32:39;97056.88;;;28.83;45.66
57644;BME280;43474;46.510;6.686;2022-07-18T06:35:05;97058.72;;;29.28;45.27
57644;BME280;43474;46.510;6.686;2022-07-18T06:37:31;97060.75;;;29.68;43.98
57644;BME280;43474;46.510;6.686;2022-07-18T06:39:56;97059.22;;;29.95;44.45
57644;BME280;43474;46.510;6.686;2022-07-18T06:42:22;97060.66;;;30.33;44.81
57644;BME280;43474;46.510;6.686;2022-07-18T06:44:47;97062.31;;;30.66;44.13
57644;BME280;43474;46.510;6.686;2022-07-18T06:47:13;97058.09;;;30.12;46.60
57644;BME280;43474;46.510;6.686;2022-07-18T06:49:38;97046.06;;;30.13;45.72
57644;BME280;43474;46.510;6.686;2022-07-18T06:52:04;97056.66;;;30.58;45.76
57644;BME280;43474;46.510;6.686;2022-07-18T06:54:29;97070.50;;;30.94;44.30
57644;BME280;43474;46.510;6.686;2022-07-18T06:56:55;97062.81;;;30.99;44.59
57644;BME280;43474;46.510;6.686;2022-07-18T06:59:21;97065.78;;;31.26;44.51
57644;BME280;43474;46.510;6.686;2022-07-18T07:01:47;97059.59;;;31.45;45.09
57644;BME280;43474;46.510;6.686;2022-07-18T07:04:12;97060.91;;;31.51;44.32
57644;BME280;43474;46.510;6.686;2022-07-18T07:06:38;97063.16;;;31.64;43.30
57644;BME280;43474;46.510;6.686;2022-07-18T07:09:04;97065.63;;;31.70;43.61
57644;BME280;43474;46.510;6.686;2022-07-18T07:11:30;97065.22;;;31.52;43.46
57644;BME280;43474;46.510;6.686;2022-07-18T07:13:55;97065.72;;;31.73;43.48
57644;BME280;43474;46.510;6.686;2022-07-18T07:16:21;97066.28;;;31.63;42.87
57644;BME280;43474;46.510;6.686;2022-07-18T07:18:46;97060.91;;;31.86;43.40
57644;BME280;43474;46.510;6.686;2022-07-18T07:21:12;97081.41;;;31.92;41.92
57644;BME280;43474;46.510;6.686;2022-07-18T07:23:38;97072.59;;;32.22;40.60
57644;BME280;43474;46.510;6.686;2022-07-18T07:26:03;97070.22;;;32.20;40.50
57644;BME280;43474;46.510;6.686;2022-07-18T07:28:29;97073.34;;;32.19;40.57
57644;BME280;43474;46.510;6.686;2022-07-18T07:30:55;97069.84;;;32.22;40.21
57644;BME280;43474;46.510;6.686;2022-07-18T07:33:21;97063.75;;;32.48;39.75
57644;BME280;43474;46.510;6.686;2022-07-18T07:35:46;97066.97;;;32.76;39.11
57644;BME280;43474;46.510;6.686;2022-07-18T07:38:12;97067.91;;;32.41;39.09
57644;BME280;43474;46.510;6.686;2022-07-18T07:40:43;97067.31;;;32.52;39.21
57644;BME280;43474;46.510;6.686;2022-07-18T07:43:11;97060.44;;;32.61;38.73
57644;BME280;43474;46.510;6.686;2022-07-18T07:45:37;97069.53;;;32.65;40.95
57644;BME280;43474;46.510;6.686;2022-07-18T07:48:04;97071.78;;;32.60;37.31
57644;BME280;43474;46.510;6.686;2022-07-18T07:50:29;97070.88;;;32.75;39.90
57644;BME280;43474;46.510;6.686;2022-07-18T07:52:58;97060.34;;;32.77;36.73
57644;BME280;43474;46.510;6.686;2022-07-18T07:55:24;97055.09;;;32.68;40.15
57644;BME280;43474;46.510;6.686;2022-07-18T07:57:50;97064.91;;;32.70;38.92
57644;BME280;43474;46.510;6.686;2022-07-18T08:00:16;97069.09;;;32.86;38.15
57644;BME280;43474;46.510;6.686;2022-07-18T08:02:58;97066.06;;;32.68;38.92
57644;BME280;43474;46.510;6.686;2022-07-18T08:05:25;97069.44;;;33.04;36.92
57644;BME280;43474;46.510;6.686;2022-07-18T08:07:50;97054.09;;;32.80;38.02
57644;BME280;43474;46.510;6.686;2022-07-18T08:10:16;97062.41;;;32.84;36.83
57644;BME280;43474;46.510;6.686;2022-07-18T08:12:42;97053.75;;;33.05;39.05
57644;BME280;43474;46.510;6.686;2022-07-18T08:15:08;97056.03;;;32.99;37.28
57644;BME280;43474;46.510;6.686;2022-07-18T08:17:34;97062.63;;;32.95;37.47
57644;BME280;43474;46.510;6.686;2022-07-18T08:20:00;97061.28;;;33.08;37.93
57644;BME280;43474;46.510;6.686;2022-07-18T08:22:25;97048.38;;;32.89;39.37
57644;BME280;43474;46.510;6.686;2022-07-18T08:24:51;97046.19;;;32.75;37.31
57644;BME280;43474;46.510;6.686;2022-07-18T08:27:16;97050.97;;;32.82;38.83
57644;BME280;43474;46.510;6.686;2022-07-18T08:29:42;97058.88;;;32.83;38.20
57644;BME280;43474;46.510;6.686;2022-07-18T08:32:08;97048.09;;;32.52;37.53
57644;BME280;43474;46.510;6.686;2022-07-18T08:34:34;97059.47;;;32.50;39.25
57644;BME280;43474;46.510;6.686;2022-07-18T08:36:59;97055.41;;;32.63;37.94
57644;BME280;43474;46.510;6.686;2022-07-18T08:39:25;97054.59;;;32.63;38.93
57644;BME280;43474;46.510;6.686;2022-07-18T08:41:51;97044.59;;;32.74;40.07
57644;BME280;43474;46.510;6.686;2022-07-18T08:44:17;97057.22;;;32.79;40.42
57644;BME280;43474;46.510;6.686;2022-07-18T08:46:49;97036.53;;;32.85;37.45
57644;BME280;43474;46.510;6.686;2022-07-18T08:49:15;97049.97;;;32.90;37.73
57644;BME280;43474;46.510;6.686;2022-07-18T08:51:42;97046.00;;;32.64;36.00
57644;BME280;43474;46.510;6.686;2022-07-18T08:54:08;97044.56;;;32.51;38.86
57644;BME280;43474;46.510;6.686;2022-07-18T08:56:34;97039.69;;;32.02;37.11
57644;BME280;43474;46.510;6.686;2022-07-18T08:59:00;97043.09;;;32.15;37.19
57644;BME280;43474;46.510;6.686;2022-07-18T09:01:31;97043.09;;;32.15;38.26
57644;BME280;43474;46.510;6.686;2022-07-18T09:03:56;97046.91;;;32.30;38.12
57644;BME280;43474;46.510;6.686;2022-07-18T09:06:49;97044.84;;;32.04;39.21
57644;BME280;43474;46.510;6.686;2022-07-18T09:09:17;97049.94;;;31.86;40.27
57644;BME280;43474;46.510;6.686;2022-07-18T09:11:56;97037.84;;;31.71;40.98
57644;BME280;43474;46.510;6.686;2022-07-18T09:14:38;97035.06;;;32.06;42.14
57644;BME280;43474;46.510;6.686;2022-07-18T09:22:23;97030.91;;;31.93;38.32
57644;BME280;43474;46.510;6.686;2022-07-18T09:24:51;97032.22;;;31.99;42.28
57644;BME280;43474;46.510;6.686;2022-07-18T09:30:10;97034.88;;;31.96;38.86
57644;BME280;43474;46.510;6.686;2022-07-18T09:32:38;97027.81;;;31.95;38.82
57644;BME280;43474;46.510;6.686;2022-07-18T09:35:06;97023.41;;;31.90;38.51
57644;BME280;43474;46.510;6.686;2022-07-18T09:37:32;97034.41;;;31.74;39.97
57644;BME280;43474;46.510;6.686;2022-07-18T09:40:20;97019.91;;;31.74;38.83
57644;BME280;43474;46.510;6.686;2022-07-18T09:42:54;97023.91;;;31.41;38.97
57644;BME280;43474;46.510;6.686;2022-07-18T09:48:12;97011.00;;;31.42;40.52
57644;BME280;43474;46.510;6.686;2022-07-18T09:50:53;97016.69;;;31.87;42.03
57644;BME280;43474;46.510;6.686;2022-07-18T09:53:25;97017.22;;;31.93;38.07
57644;BME280;43474;46.510;6.686;2022-07-18T09:55:55;97013.59;;;32.08;39.00
57644;BME280;43474;46.510;6.686;2022-07-18T09:58:23;97010.28;;;32.22;40.86
57644;BME280;43474;46.510;6.686;2022-07-18T10:00:50;97001.34;;;32.25;39.24
57644;BME280;43474;46.510;6.686;2022-07-18T10:03:17;97000.56;;;32.44;39.69
57644;BME280;43474;46.510;6.686;2022-07-18T10:05:46;96999.97;;;32.35;38.66
57644;BME280;43474;46.510;6.686;2022-07-18T10:08:21;97003.59;;;32.20;38.65
57644;BME280;43474;46.510;6.686;2022-07-18T10:10:48;96993.13;;;32.25;39.89
57644;BME280;43474;46.510;6.686;2022-07-18T10:13:15;97003.66;;;32.42;40.16
57644;BME280;43474;46.510;6.686;2022-07-18T10:15:43;97000.84;;;32.39;40.42
57644;BME280;43474;46.510;6.686;2022-07-18T10:18:12;97008.72;;;32.21;36.50
57644;BME280;43474;46.510;6.686;2022-07-18T10:20:44;97005.56;;;32.19;37.13
57644;BME280;43474;46.510;6.686;2022-07-18T10:23:19;96993.19;;;32.29;37.67
57644;BME280;43474;46.510;6.686;2022-07-18T10:26:05;96989.13;;;32.42;38.04
57644;BME280;43474;46.510;6.686;2022-07-18T10:28:34;96976.59;;;32.64;37.91
57644;BME280;43474;46.510;6.686;2022-07-18T10:31:14;96987.97;;;32.89;38.26
57644;BME280;43474;46.510;6.686;2022-07-18T10:33:45;96968.22;;;33.03;37.90
57644;BME280;43474;46.510;6.686;2022-07-18T10:36:17;96982.25;;;32.98;34.91
57644;BME280;43474;46.510;6.686;2022-07-18T10:39:16;96969.41;;;33.05;37.24
57644;BME280;43474;46.510;6.686;2022-07-18T10:44:31;96968.88;;;33.49;37.17
57644;BME280;43474;46.510;6.686;2022-07-18T11:00:24;96955.09;;;32.70;37.47
57644;BME280;43474;46.510;6.686;2022-07-18T11:03:06;96960.88;;;32.87;37.69
57644;BME280;43474;46.510;6.686;2022-07-18T11:18:36;96937.69;;;33.38;38.49
57644;BME280;43474;46.510;6.686;2022-07-18T11:21:19;96932.75;;;33.84;38.19
57644;BME280;43474;46.510;6.686;2022-07-18T11:23:47;96923.88;;;33.94;36.74
57644;BME280;43474;46.510;6.686;2022-07-18T11:26:17;96918.47;;;34.02;36.02
57644;BME280;43474;46.510;6.686;2022-07-18T11:28:43;96923.63;;;34.07;36.30
57644;BME280;43474;46.510;6.686;2022-07-18T11:31:11;96910.38;;;33.86;35.19
57644;BME280;43474;46.510;6.686;2022-07-18T11:33:44;96920.00;;;33.99;33.36
57644;BME280;43474;46.510;6.686;2022-07-18T11:36:12;96919.59;;;34.01;33.55
57644;BME280;43474;46.510;6.686;2022-07-18T11:38:50;96920.31;;;33.94;36.06
57644;BME280;43474;46.510;6.686;2022-07-18T11:41:17;96915.72;;;34.02;34.00
57644;BME280;43474;46.510;6.686;2022-07-18T11:43:44;96904.41;;;34.14;36.46
57644;BME280;43474;46.510;6.686;2022-07-18T11:46:12;96910.44;;;33.89;33.04
57644;BME280;43474;46.510;6.686;2022-07-18T11:48:39;96906.47;;;34.24;35.98
57644;BME280;43474;46.510;6.686;2022-07-18T11:51:16;96897.16;;;34.39;34.69
57644;BME280;43474;46.510;6.686;2022-07-18T11:53:52;96888.78;;;34.22;35.39
57644;BME280;43474;46.510;6.686;2022-07-18T11:56:20;96893.69;;;34.46;35.04
57644;BME280;43474;46.510;6.686;2022-07-18T11:58:47;96888.56;;;34.44;33.04
57644;BME280;43474;46.510;6.686;2022-07-18T12:01:14;96879.44;;;34.33;33.11
57644;BME280;43474;46.510;6.686;2022-07-18T12:03:41;96882.06;;;34.19;34.59
57644;BME280;43474;46.510;6.686;2022-07-18T12:06:17;96882.16;;;34.30;35.26
57644;BME280;43474;46.510;6.686;2022-07-18T12:08:44;96876.69;;;34.33;34.59
57644;BME280;43474;46.510;6.686;2022-07-18T12:11:26;96873.16;;;34.36;32.31
57644;BME280;43474;46.510;6.686;2022-07-18T12:14:00;96869.00;;;34.09;33.95
57644;BME280;43474;46.510;6.686;2022-07-18T12:18:55;96869.47;;;34.66;33.94
57644;BME280;43474;46.510;6.686;2022-07-18T12:21:21;96862.28;;;34.47;36.46
57644;BME280;43474;46.510;6.686;2022-07-18T12:23:47;96860.78;;;34.57;35.41
57644;BME280;43474;46.510;6.686;2022-07-18T12:26:29;96856.66;;;34.36;33.52
57644;BME280;43474;46.510;6.686;2022-07-18T12:29:06;96845.06;;;34.64;38.46
57644;BME280;43474;46.510;6.686;2022-07-18T12:31:43;96857.03;;;34.86;35.19
57644;BME280;43474;46.510;6.686;2022-07-18T12:34:16;96852.59;;;34.75;34.91
57644;BME280;43474;46.510;6.686;2022-07-18T12:36:57;96844.44;;;34.89;35.96
57644;BME280;43474;46.510;6.686;2022-07-18T12:39:33;96845.22;;;34.89;34.29
57644;BME280;43474;46.510;6.686;2022-07-18T12:42:00;96843.66;;;34.88;34.32
57644;BME280;43474;46.510;6.686;2022-07-18T12:44:27;96828.16;;;34.66;32.71
57644;BME280;43474;46.510;6.686;2022-07-18T12:46:53;96833.72;;;34.73;32.39
57644;BME280;43474;46.510;6.686;2022-07-18T12:49:19;96835.34;;;34.85;32.56
57644;BME280;43474;46.510;6.686;2022-07-18T12:51:45;96831.69;;;34.63;32.19
57644;BME280;43474;46.510;6.686;2022-07-18T12:54:10;96823.50;;;34.74;33.52
57644;BME280;43474;46.510;6.686;2022-07-18T12:56:36;96821.59;;;34.85;32.36
57644;BME280;43474;46.510;6.686;2022-07-18T12:59:02;96823.97;;;34.90;30.15
57644;BME280;43474;46.510;6.686;2022-07-18T13:01:27;96788.84;;;34.69;32.25
57644;BME280;43474;46.510;6.686;2022-07-18T13:03:53;96809.13;;;35.02;32.35
57644;BME280;43474;46.510;6.686;2022-07-18T13:06:19;96805.44;;;34.76;30.71
57644;BME280;43474;46.510;6.686;2022-07-18T13:08:44;96807.88;;;34.95;31.84
57644;BME280;43474;46.510;6.686;2022-07-18T13:11:09;96809.78;;;34.84;33.05
57644;BME280;43474;46.510;6.686;2022-07-18T13:13:35;96807.44;;;34.90;31.15
57644;BME280;43474;46.510;6.686;2022-07-18T13:16:01;96799.94;;;34.83;30.76
57644;BME280;43474;46.510;6.686;2022-07-18T13:18:26;96803.38;;;34.66;31.49
57644;BME280;43474;46.510;6.686;2022-07-18T13:20:52;96812.44;;;34.63;33.85
57644;BME280;43474;46.510;6.686;2022-07-18T13:23:17;96802.50;;;34.51;34.19
57644;BME280;43474;46.510;6.686;2022-07-18T13:25:43;96802.44;;;34.44;32.61
57644;BME280;43474;46.510;6.686;2022-07-18T13:28:09;96803.94;;;34.34;31.81
57644;BME280;43474;46.510;6.686;2022-07-18T13:30:35;96802.41;;;34.37;31.62
57644;BME280;43474;46.510;6.686;2022-07-18T13:33:01;96787.28;;;34.13;32.26
57644;BME280;43474;46.510;6.686;2022-07-18T13:35:26;96780.88;;;33.98;31.70
57644;BME280;43474;46.510;6.686;2022-07-18T13:37:52;96785.84;;;34.30;34.45
57644;BME280;43474;46.510;6.686;2022-07-18T13:40:17;96773.28;;;34.32;31.32
57644;BME280;43474;46.510;6.686;2022-07-18T13:42:43;96771.38;;;34.43;32.08